sensor_id;sensor_type;location;lat;lon;timestamp;pressure;altitude;pressure_sealevel;temperature;humidity
12666;BME280;58531;59.050;17.416;2022-09-12T00:00:40;101076.66;;;6.84;100.00
12666;BME280;58531;59.050;17.416;2022-09-12T00:03:07;101067.19;;;6.83;100.00
12666;BME280;58531;59.050;17.416;2022-09-12T00:05:39;101067.97;;;6.80;100.00
12666;BME280;58531;59.050;17.416;2022-09-12T00:08:06;101072.50;;;6.79;100.00
12666;BME280;58531;59.050;17.416;2022-09-12T00:10:37;101071.78;;;6.79;100.00
12666;BME280;58531;59.050;17.416;2022-09-12T00:13:04;101070.66;;;6.76;100.00
12666;BME280;58531;59.050;17.416;2022-09-12T00:15:30;101078.25;;;6.74;100.00
12666;BME280;58531;59.050;17.416;2022-09-12T00:17:59;101083.94;;;6.76;100.00
12666;BME280;58531;59.050;17.416;2022-09-12T00:20:25;101082.75;;;6.81;100.00
12666;BME280;58531;59.050;17.416;2022-09-12T00:22:52;101083.81;;;6.87;100.00
12666;BME280;58531;59.050;17.416;2022-09-12T00:25:19;101078.41;;;6.94;100.00
12666;BME280;58531;59.050;17.416;2022-09-12T00:27:45;101082.88;;;7.00;100.00
12666;BME280;58531;59.050;17.416;2022-09-12T00:30:12;101075.22;;;7.05;100.00
12666;BME280;58531;59.050;17.416;2022-09-12T00:32:39;101067.97;;;7.09;100.00
12666;BME280;58531;59.050;17.416;2022-09-12T00:35:08;101070.59;;;7.13;100.00
12666;BME280;58531;59.050;17.416;2022-09-12T00:37:34;101071.31;;;7.13;100.00
12666;BME280;58531;59.050;17.416;2022-09-12T00:40:01;101065.28;;;7.13;100.00
12666;BME280;58531;59.050;17.416;2022-09-12T00:42:28;101058.03;;;7.13;100.00
12666;BME280;58531;59.050;17.416;2022-09-12T00:44:55;101057.25;;;7.16;100.00
12666;BME280;58531;59.050;17.416;2022-09-12T00:47:24;101049.66;;;7.15;100.00
12666;BME280;58531;59.050;17.416;2022-09-12T00:50:00;101058.03;;;7.13;100.00
12666;BME280;58531;59.050;17.416;2022-09-12T00:52:34;101059.97;;;7.13;100.00
12666;BME280;58531;59.050;17.416;2022-09-12T00:55:06;101063.78;;;7.12;100.00
12666;BME280;58531;59.050;17.416;2022-09-12T00:57:37;101057.34;;;7.09;100.00
12666;BME280;58531;59.050;17.416;2022-09-12T01:00:08;101057.75;;;7.08;100.00
12666;BME280;58531;59.050;17.416;2022-09-12T01:02:47;101054.41;;;7.00;100.00
12666;BME280;58531;59.050;17.416;2022-09-12T01:05:15;101049.19;;;6.94;100.00
12666;BME280;58531;59.050;17.416;2022-09-12T01:07:43;101048.16;;;6.88;100.00
12666;BME280;58531;59.050;17.416;2022-09-12T01:10:13;101047.47;;;6.80;100.00
12666;BME280;58531;59.050;17.416;2022-09-12T01:12:41;101041.09;;;6.74;100.00
12666;BME280;58531;59.050;17.416;2022-09-12T01:15:09;101044.97;;;6.70;100.00
12666;BME280;58531;59.050;17.416;2022-09-12T01:17:47;101040.88;;;6.62;100.00
12666;BME280;58531;59.050;17.416;2022-09-12T01:20:34;101032.63;;;6.56;100.00
12666;BME280;58531;59.050;17.416;2022-09-12T01:23:25;101030.00;;;6.53;100.00
12666;BME280;58531;59.050;17.416;2022-09-12T01:26:11;101025.91;;;6.45;100.00
12666;BME280;58531;59.050;17.416;2022-09-12T01:29:00;101036.56;;;6.41;100.00
12666;BME280;58531;59.050;17.416;2022-09-12T01:31:36;101027.50;;;6.39;100.00
12666;BME280;58531;59.050;17.416;2022-09-12T01:34:16;101026.81;;;6.35;100.00
12666;BME280;58531;59.050;17.416;2022-09-12T01:36:55;101029.88;;;6.30;100.00
12666;BME280;58531;59.050;17.416;2022-09-12T01:39:29;101032.91;;;6.32;100.00
12666;BME280;58531;59.050;17.416;2022-09-12T01:42:08;101027.22;;;6.30;100.00
12666;BME280;58531;59.050;17.416;2022-09-12T01:44:43;101024.59;;;6.30;100.00
12666;BME280;58531;59.050;17.416;2022-09-12T01:47:18;101026.91;;;6.24;100.00
12666;BME280;58531;59.050;17.416;2022-09-12T01:49:51;101033.78;;;6.18;100.00
12666;BME280;58531;59.050;17.416;2022-09-12T01:52:23;101025.81;;;6.18;100.00
12666;BME280;58531;59.050;17.416;2022-09-12T01:54:55;101028.09;;;6.20;100.00
12666;BME280;58531;59.050;17.416;2022-09-12T01:57:28;101028.53;;;6.15;100.00
12666;BME280;58531;59.050;17.416;2022-09-12T02:00:00;101028.59;;;6.08;100.00
12666;BME280;58531;59.050;17.416;2022-09-12T02:02:34;101030.94;;;6.02;100.00
12666;BME280;58531;59.050;17.416;2022-09-12T02:05:05;101035.88;;;6.00;100.00
12666;BME280;58531;59.050;17.416;2022-09-12T02:07:36;101032.09;;;5.98;100.00
12666;BME280;58531;59.050;17.416;2022-09-12T02:10:07;101039.31;;;5.94;100.00
12666;BME280;58531;59.050;17.416;2022-09-12T02:12:39;101033.66;;;5.92;100.00
12666;BME280;58531;59.050;17.416;2022-09-12T02:15:11;101035.19;;;5.89;100.00
12666;BME280;58531;59.050;17.416;2022-09-12T02:17:42;101038.59;;;5.90;100.00
12666;BME280;58531;59.050;17.416;2022-09-12T02:20:15;101036.38;;;5.85;100.00
12666;BME280;58531;59.050;17.416;2022-09-12T02:22:44;101031.91;;;5.75;100.00
12666;BME280;58531;59.050;17.416;2022-09-12T02:25:16;101035.34;;;5.69;100.00
12666;BME280;58531;59.050;17.416;2022-09-12T02:27:46;101038.03;;;5.65;100.00
12666;BME280;58531;59.050;17.416;2022-09-12T02:30:14;101037.31;;;5.61;100.00
12666;BME280;58531;59.050;17.416;2022-09-12T02:32:55;101041.88;;;5.57;100.00
12666;BME280;58531;59.050;17.416;2022-09-12T02:35:31;101037.72;;;5.56;100.00
12666;BME280;58531;59.050;17.416;2022-09-12T02:38:03;101035.09;;;5.53;100.00
12666;BME280;58531;59.050;17.416;2022-09-12T02:40:32;101032.84;;;5.51;100.00
12666;BME280;58531;59.050;17.416;2022-09-12T02:43:00;101032.47;;;5.53;100.00
12666;BME280;58531;59.050;17.416;2022-09-12T02:45:27;101030.94;;;5.52;100.00
12666;BME280;58531;59.050;17.416;2022-09-12T02:48:01;101033.97;;;5.54;100.00
12666;BME280;58531;59.050;17.416;2022-09-12T02:50:30;101032.09;;;5.51;100.00
12666;BME280;58531;59.050;17.416;2022-09-12T02:52:58;101031.75;;;5.45;100.00
12666;BME280;58531;59.050;17.416;2022-09-12T02:55:29;101035.53;;;5.44;100.00
12666;BME280;58531;59.050;17.416;2022-09-12T02:57:57;101032.91;;;5.41;100.00
12666;BME280;58531;59.050;17.416;2022-09-12T03:00:24;101034.06;;;5.36;100.00
12666;BME280;58531;59.050;17.416;2022-09-12T03:03:20;101027.28;;;5.35;100.00
12666;BME280;58531;59.050;17.416;2022-09-12T03:05:55;101036.03;;;5.29;100.00
12666;BME280;58531;59.050;17.416;2022-09-12T03:08:37;101032.22;;;5.30;100.00
12666;BME280;58531;59.050;17.416;2022-09-12T03:11:39;101031.50;;;5.29;100.00
12666;BME280;58531;59.050;17.416;2022-09-12T03:14:27;101038.66;;;5.32;100.00
12666;BME280;58531;59.050;17.416;2022-09-12T03:17:06;101031.09;;;5.34;100.00
12666;BME280;58531;59.050;17.416;2022-09-12T03:19:49;101032.59;;;5.35;100.00
12666;BME280;58531;59.050;17.416;2022-09-12T03:22:22;101033.34;;;5.36;100.00
12666;BME280;58531;59.050;17.416;2022-09-12T03:25:02;101033.34;;;5.36;100.00
12666;BME280;58531;59.050;17.416;2022-09-12T03:27:33;101027.66;;;5.34;100.00
12666;BME280;58531;59.050;17.416;2022-09-12T03:30:02;101032.94;;;5.37;100.00
12666;BME280;58531;59.050;17.416;2022-09-12T03:32:43;101033.34;;;5.36;100.00
12666;BME280;58531;59.050;17.416;2022-09-12T03:35:12;101033.72;;;5.34;100.00
12666;BME280;58531;59.050;17.416;2022-09-12T03:37:40;101029.13;;;5.38;100.00
12666;BME280;58531;59.050;17.416;2022-09-12T03:40:08;101036.31;;;5.41;100.00
12666;BME280;58531;59.050;17.416;2022-09-12T03:42:36;101035.53;;;5.44;100.00
12666;BME280;58531;59.050;17.416;2022-09-12T03:45:03;101031.75;;;5.45;100.00
12666;BME280;58531;59.050;17.416;2022-09-12T03:47:30;101033.66;;;5.41;100.00
12666;BME280;58531;59.050;17.416;2022-09-12T03:49:57;101033.28;;;5.39;100.00
12666;BME280;58531;59.050;17.416;2022-09-12T03:52:25;101034.06;;;5.36;100.00
12666;BME280;58531;59.050;17.416;2022-09-12T03:54:52;101028.06;;;5.32;100.00
12666;BME280;58531;59.050;17.416;2022-09-12T03:57:19;101033.00;;;5.30;100.00
12666;BME280;58531;59.050;17.416;2022-09-12T03:59:47;101036.03;;;5.29;100.00
12666;BME280;58531;59.050;17.416;2022-09-12T04:02:14;101038.31;;;5.27;100.00
12666;BME280;58531;59.050;17.416;2022-09-12T04:04:41;101030.00;;;5.28;100.00
12666;BME280;58531;59.050;17.416;2022-09-12T04:07:08;101028.84;;;5.29;100.00
12666;BME280;58531;59.050;17.416;2022-09-12T04:09:37;101025.06;;;5.30;100.00
12666;BME280;58531;59.050;17.416;2022-09-12T04:12:04;101034.09;;;5.33;100.00
12666;BME280;58531;59.050;17.416;2022-09-12T04:14:31;101031.47;;;5.33;100.00
12666;BME280;58531;59.050;17.416;2022-09-12T04:16:58;101027.28;;;5.35;100.00
12666;BME280;58531;59.050;17.416;2022-09-12T04:19:25;101027.66;;;5.34;100.00
12666;BME280;58531;59.050;17.416;2022-09-12T04:21:52;101031.09;;;5.34;100.00
12666;BME280;58531;59.050;17.416;2022-09-12T04:24:19;101032.59;;;5.35;100.00
12666;BME280;58531;59.050;17.416;2022-09-12T04:26:47;101036.38;;;5.34;100.00
12666;BME280;58531;59.050;17.416;2022-09-12T04:29:14;101036.72;;;5.36;100.00
12666;BME280;58531;59.050;17.416;2022-09-12T04:31:41;101034.44;;;5.38;100.00
12666;BME280;58531;59.050;17.416;2022-09-12T04:34:08;101033.66;;;5.41;100.00
12666;BME280;58531;59.050;17.416;2022-09-12T04:36:36;101031.38;;;5.43;100.00
12666;BME280;58531;59.050;17.416;2022-09-12T04:39:03;101037.44;;;5.44;100.00
12666;BME280;58531;59.050;17.416;2022-09-12T04:41:32;101041.97;;;5.47;100.00
12666;BME280;58531;59.050;17.416;2022-09-12T04:44:03;101038.53;;;5.50;100.00
12666;BME280;58531;59.050;17.416;2022-09-12T04:46:32;101044.16;;;5.55;100.00
12666;BME280;58531;59.050;17.416;2022-09-12T04:48:59;101038.81;;;5.62;100.00
12666;BME280;58531;59.050;17.416;2022-09-12T04:51:28;101031.94;;;5.68;100.00
12666;BME280;58531;59.050;17.416;2022-09-12T04:53:57;101026.63;;;5.72;100.00
12666;BME280;58531;59.050;17.416;2022-09-12T04:56:25;101041.75;;;5.78;100.00
12666;BME280;58531;59.050;17.416;2022-09-12T04:58:55;101032.59;;;5.82;100.00
12666;BME280;58531;59.050;17.416;2022-09-12T05:01:23;101031.03;;;5.88;100.00
12666;BME280;58531;59.050;17.416;2022-09-12T05:03:51;101034.00;;;5.97;100.00
12666;BME280;58531;59.050;17.416;2022-09-12T05:06:20;101033.09;;;6.11;100.00
12666;BME280;58531;59.050;17.416;2022-09-12T05:08:48;101034.91;;;6.21;100.00
12666;BME280;58531;59.050;17.416;2022-09-12T05:11:17;101029.84;;;6.33;100.00
12666;BME280;58531;59.050;17.416;2022-09-12T05:13:45;101032.00;;;6.42;100.00
12666;BME280;58531;59.050;17.416;2022-09-12T05:16:13;101034.56;;;6.52;100.00
12666;BME280;58531;59.050;17.416;2022-09-12T05:18:42;101040.16;;;6.61;100.00
12666;BME280;58531;59.050;17.416;2022-09-12T05:21:11;101043.84;;;6.67;100.00
12666;BME280;58531;59.050;17.416;2022-09-12T05:23:38;101036.56;;;6.75;100.00
12666;BME280;58531;59.050;17.416;2022-09-12T05:26:06;101041.44;;;6.80;100.00
12666;BME280;58531;59.050;17.416;2022-09-12T05:28:35;101045.44;;;6.91;100.00
12666;BME280;58531;59.050;17.416;2022-09-12T05:31:04;101039.97;;;7.05;100.00
12666;BME280;58531;59.050;17.416;2022-09-12T05:33:34;101042.28;;;7.29;100.00
12666;BME280;58531;59.050;17.416;2022-09-12T05:36:04;101045.59;;;7.60;100.00
12666;BME280;58531;59.050;17.416;2022-09-12T05:38:33;101053.81;;;9.28;100.00
12666;BME280;58531;59.050;17.416;2022-09-12T05:41:03;101051.59;;;11.00;100.00
12666;BME280;58531;59.050;17.416;2022-09-12T05:43:31;101054.16;;;12.76;100.00
12666;BME280;58531;59.050;17.416;2022-09-12T05:46:01;101055.50;;;14.17;92.53
12666;BME280;58531;59.050;17.416;2022-09-12T05:48:28;101052.09;;;15.35;83.64
12666;BME280;58531;59.050;17.416;2022-09-12T05:50:59;101057.03;;;16.44;77.08
12666;BME280;58531;59.050;17.416;2022-09-12T05:53:28;101060.53;;;17.22;70.34
12666;BME280;58531;59.050;17.416;2022-09-12T05:56:03;101071.03;;;18.09;64.82
12666;BME280;58531;59.050;17.416;2022-09-12T05:58:30;101064.56;;;19.02;59.42
12666;BME280;58531;59.050;17.416;2022-09-12T06:01:01;101062.81;;;19.78;55.56
12666;BME280;58531;59.050;17.416;2022-09-12T06:03:28;101069.44;;;20.40;53.51
12666;BME280;58531;59.050;17.416;2022-09-12T06:05:55;101071.94;;;21.21;49.93
12666;BME280;58531;59.050;17.416;2022-09-12T06:08:22;101075.50;;;21.83;46.92
12666;BME280;58531;59.050;17.416;2022-09-12T06:10:50;101077.78;;;22.25;44.96
12666;BME280;58531;59.050;17.416;2022-09-12T06:13:17;101076.06;;;22.68;44.31
12666;BME280;58531;59.050;17.416;2022-09-12T06:15:44;101076.88;;;22.87;43.40
12666;BME280;58531;59.050;17.416;2022-09-12T06:18:10;101078.53;;;23.25;42.14
12666;BME280;58531;59.050;17.416;2022-09-12T06:20:37;101073.97;;;23.38;41.53
12666;BME280;58531;59.050;17.416;2022-09-12T06:23:04;101076.16;;;23.64;40.91
12666;BME280;58531;59.050;17.416;2022-09-12T06:25:31;101085.34;;;23.85;40.66
12666;BME280;58531;59.050;17.416;2022-09-12T06:27:59;101087.84;;;23.83;40.92
12666;BME280;58531;59.050;17.416;2022-09-12T06:30:26;101086.56;;;24.07;40.71
12666;BME280;58531;59.050;17.416;2022-09-12T06:32:53;101079.91;;;24.21;40.44
12666;BME280;58531;59.050;17.416;2022-09-12T06:35:21;101073.06;;;23.73;41.52
12666;BME280;58531;59.050;17.416;2022-09-12T06:37:48;101081.91;;;24.02;40.70
12666;BME280;58531;59.050;17.416;2022-09-12T06:40:15;101079.22;;;23.79;41.50
12666;BME280;58531;59.050;17.416;2022-09-12T06:42:41;101075.97;;;24.35;40.63
12666;BME280;58531;59.050;17.416;2022-09-12T06:45:10;101076.41;;;24.58;39.90
12666;BME280;58531;59.050;17.416;2022-09-12T06:47:37;101077.78;;;24.96;39.49
12666;BME280;58531;59.050;17.416;2022-09-12T06:50:04;101081.50;;;25.11;39.03
12666;BME280;58531;59.050;17.416;2022-09-12T06:52:31;101080.84;;;25.05;38.87
12666;BME280;58531;59.050;17.416;2022-09-12T06:54:58;101076.75;;;25.12;39.47
12666;BME280;58531;59.050;17.416;2022-09-12T06:57:24;101077.16;;;24.90;40.39
12666;BME280;58531;59.050;17.416;2022-09-12T06:59:54;101075.16;;;25.03;39.55
12666;BME280;58531;59.050;17.416;2022-09-12T07:02:23;101078.22;;;25.13;39.56
12666;BME280;58531;59.050;17.416;2022-09-12T07:04:50;101077.28;;;24.47;39.85
12666;BME280;58531;59.050;17.416;2022-09-12T07:07:17;101073.13;;;25.35;38.71
12666;BME280;58531;59.050;17.416;2022-09-12T07:09:43;101075.38;;;25.05;39.76
12666;BME280;58531;59.050;17.416;2022-09-12T07:12:10;101068.69;;;25.32;39.34
12666;BME280;58531;59.050;17.416;2022-09-12T07:14:37;101071.88;;;25.62;38.63
12666;BME280;58531;59.050;17.416;2022-09-12T07:17:04;101075.00;;;25.79;38.05
12666;BME280;58531;59.050;17.416;2022-09-12T07:19:33;101078.28;;;25.64;38.53
12666;BME280;58531;59.050;17.416;2022-09-12T07:22:00;101077.75;;;25.53;38.85
12666;BME280;58531;59.050;17.416;2022-09-12T07:24:26;101075.53;;;25.77;38.33
12666;BME280;58531;59.050;17.416;2022-09-12T07:26:53;101084.66;;;26.06;38.40
12666;BME280;58531;59.050;17.416;2022-09-12T07:29:20;101078.09;;;24.42;41.21
12666;BME280;58531;59.050;17.416;2022-09-12T07:31:47;101076.88;;;23.88;42.70
12666;BME280;58531;59.050;17.416;2022-09-12T07:34:14;101079.75;;;21.79;48.12
12666;BME280;58531;59.050;17.416;2022-09-12T07:36:43;101076.09;;;20.34;52.17
12666;BME280;58531;59.050;17.416;2022-09-12T07:39:10;101068.97;;;19.78;54.58
12666;BME280;58531;59.050;17.416;2022-09-12T07:41:36;101073.63;;;19.30;56.81
12666;BME280;58531;59.050;17.416;2022-09-12T07:44:03;101066.78;;;19.04;57.41
12666;BME280;58531;59.050;17.416;2022-09-12T07:46:31;101062.19;;;18.54;58.62
12666;BME280;58531;59.050;17.416;2022-09-12T07:48:59;101066.00;;;18.67;58.73
12666;BME280;58531;59.050;17.416;2022-09-12T07:51:27;101069.13;;;18.35;60.54
12666;BME280;58531;59.050;17.416;2022-09-12T07:53:56;101066.19;;;18.38;60.76
12666;BME280;58531;59.050;17.416;2022-09-12T07:56:24;101071.00;;;18.49;60.87
12666;BME280;58531;59.050;17.416;2022-09-12T07:58:51;101068.72;;;18.42;60.14
12666;BME280;58531;59.050;17.416;2022-09-12T08:01:21;101073.53;;;18.32;60.06
12666;BME280;58531;59.050;17.416;2022-09-12T08:03:52;101072.91;;;18.43;62.24
12666;BME280;58531;59.050;17.416;2022-09-12T08:06:20;101067.00;;;18.44;60.44
12666;BME280;58531;59.050;17.416;2022-09-12T08:08:49;101067.06;;;18.50;61.27
12666;BME280;58531;59.050;17.416;2022-09-12T08:11:19;101070.25;;;18.48;60.82
12666;BME280;58531;59.050;17.416;2022-09-12T08:13:47;101064.41;;;18.30;58.79
12666;BME280;58531;59.050;17.416;2022-09-12T08:16:16;101068.88;;;18.58;58.49
12666;BME280;58531;59.050;17.416;2022-09-12T08:18:44;101072.81;;;18.63;59.07
12666;BME280;58531;59.050;17.416;2022-09-12T08:21:13;101074.16;;;18.73;58.71
12666;BME280;58531;59.050;17.416;2022-09-12T08:23:41;101065.63;;;18.54;58.98
12666;BME280;58531;59.050;17.416;2022-09-12T08:26:08;101060.31;;;18.65;59.24
12666;BME280;58531;59.050;17.416;2022-09-12T08:28:37;101070.56;;;18.56;61.04
12666;BME280;58531;59.050;17.416;2022-09-12T08:31:07;101067.34;;;18.83;59.58
12666;BME280;58531;59.050;17.416;2022-09-12T08:33:34;101069.19;;;18.97;58.82
12666;BME280;58531;59.050;17.416;2022-09-12T08:36:05;101068.53;;;19.07;59.08
12666;BME280;58531;59.050;17.416;2022-09-12T08:38:32;101067.22;;;18.97;57.59
12666;BME280;58531;59.050;17.416;2022-09-12T08:41:04;101072.63;;;18.97;57.46
12666;BME280;58531;59.050;17.416;2022-09-12T08:43:48;101063.00;;;18.91;57.07
12666;BME280;58531;59.050;17.416;2022-09-12T08:46:22;101059.19;;;18.77;57.42
12666;BME280;58531;59.050;17.416;2022-09-12T08:48:50;101059.75;;;18.56;57.89
12666;BME280;58531;59.050;17.416;2022-09-12T08:51:18;101055.72;;;18.46;59.01
12666;BME280;58531;59.050;17.416;2022-09-12T08:53:46;101048.81;;;18.45;59.75
12666;BME280;58531;59.050;17.416;2022-09-12T08:56:14;101044.41;;;18.47;58.96
12666;BME280;58531;59.050;17.416;2022-09-12T08:58:43;101051.19;;;18.63;59.16
12666;BME280;58531;59.050;17.416;2022-09-12T09:01:17;101044.09;;;18.65;57.42
12666;BME280;58531;59.050;17.416;2022-09-12T09:04:14;101039.94;;;18.70;57.66
12666;BME280;58531;59.050;17.416;2022-09-12T09:07:13;101034.94;;;18.63;56.88
12666;BME280;58531;59.050;17.416;2022-09-12T09:09:51;101035.22;;;18.39;57.56
12666;BME280;58531;59.050;17.416;2022-09-12T09:12:31;101033.66;;;18.27;55.42
12666;BME280;58531;59.050;17.416;2022-09-12T09:15:18;101032.06;;;18.41;57.80
12666;BME280;58531;59.050;17.416;2022-09-12T09:17:54;101028.72;;;18.51;55.05
12666;BME280;58531;59.050;17.416;2022-09-12T09:20:28;101034.09;;;18.46;55.65
12666;BME280;58531;59.050;17.416;2022-09-12T09:22:58;101028.41;;;18.75;56.36
12666;BME280;58531;59.050;17.416;2022-09-12T09:25:37;101026.75;;;18.83;55.71
12666;BME280;58531;59.050;17.416;2022-09-12T09:28:12;101025.50;;;18.78;53.75
12666;BME280;58531;59.050;17.416;2022-09-12T09:30:42;101025.88;;;18.97;54.13
12666;BME280;58531;59.050;17.416;2022-09-12T09:33:17;101029.91;;;19.12;55.74
12666;BME280;58531;59.050;17.416;2022-09-12T09:35:46;101019.31;;;19.08;55.33
12666;BME280;58531;59.050;17.416;2022-09-12T09:38:22;101018.50;;;18.97;54.13
12666;BME280;58531;59.050;17.416;2022-09-12T09:41:01;101018.81;;;19.04;55.49
12666;BME280;58531;59.050;17.416;2022-09-12T09:43:32;101018.03;;;18.99;54.36
12666;BME280;58531;59.050;17.416;2022-09-12T09:45:59;101021.03;;;19.06;54.37
12666;BME280;58531;59.050;17.416;2022-09-12T09:48:30;101020.16;;;19.20;53.98
12666;BME280;58531;59.050;17.416;2022-09-12T09:50:59;101014.56;;;19.34;54.20
12666;BME280;58531;59.050;17.416;2022-09-12T09:53:36;101013.78;;;19.28;55.52
12666;BME280;58531;59.050;17.416;2022-09-12T09:56:08;101008.44;;;19.39;55.49
12666;BME280;58531;59.050;17.416;2022-09-12T09:58:38;101004.84;;;19.59;53.53
12666;BME280;58531;59.050;17.416;2022-09-12T10:01:11;100999.91;;;19.57;52.32
12666;BME280;58531;59.050;17.416;2022-09-12T10:03:47;100996.38;;;19.40;51.40
12666;BME280;58531;59.050;17.416;2022-09-12T10:06:23;100996.91;;;19.44;52.73
12666;BME280;58531;59.050;17.416;2022-09-12T10:08:50;100995.41;;;19.43;53.52
12666;BME280;58531;59.050;17.416;2022-09-12T10:11:28;100993.97;;;19.53;53.81
12666;BME280;58531;59.050;17.416;2022-09-12T10:13:56;100986.19;;;19.24;52.80
12666;BME280;58531;59.050;17.416;2022-09-12T10:16:26;100985.63;;;19.09;54.19
12666;BME280;58531;59.050;17.416;2022-09-12T10:18:56;100989.81;;;19.10;54.50
12666;BME280;58531;59.050;17.416;2022-09-12T10:21:30;100998.50;;;19.25;53.62
12666;BME280;58531;59.050;17.416;2022-09-12T10:24:01;100986.00;;;19.39;52.65
12666;BME280;58531;59.050;17.416;2022-09-12T10:26:35;100995.72;;;19.62;51.96
12666;BME280;58531;59.050;17.416;2022-09-12T10:29:12;101002.47;;;19.83;51.49
12666;BME280;58531;59.050;17.416;2022-09-12T10:31:46;100996.16;;;20.13;50.77
12666;BME280;58531;59.050;17.416;2022-09-12T10:34:35;100990.00;;;20.07;49.91
12666;BME280;58531;59.050;17.416;2022-09-12T10:37:04;100988.16;;;19.77;48.05
12666;BME280;58531;59.050;17.416;2022-09-12T10:39:32;100989.88;;;19.80;49.98
12666;BME280;58531;59.050;17.416;2022-09-12T10:42:00;100980.78;;;19.88;50.34
12666;BME280;58531;59.050;17.416;2022-09-12T10:44:29;100981.84;;;20.18;48.17
12666;BME280;58531;59.050;17.416;2022-09-12T10:46:57;100978.66;;;20.25;45.76
12666;BME280;58531;59.050;17.416;2022-09-12T10:49:27;100982.63;;;20.73;47.00
12666;BME280;58531;59.050;17.416;2022-09-12T10:52:11;100977.91;;;21.07;47.66
12666;BME280;58531;59.050;17.416;2022-09-12T10:54:42;100982.63;;;21.68;46.09
12666;BME280;58531;59.050;17.416;2022-09-12T10:57:31;100974.06;;;21.99;43.12
12666;BME280;58531;59.050;17.416;2022-09-12T11:00:07;100976.19;;;22.17;43.56
12666;BME280;58531;59.050;17.416;2022-09-12T11:02:49;100970.13;;;22.65;41.99
12666;BME280;58531;59.050;17.416;2022-09-12T11:05:27;100977.34;;;22.57;42.20
12666;BME280;58531;59.050;17.416;2022-09-12T11:08:09;100976.25;;;22.01;40.97
12666;BME280;58531;59.050;17.416;2022-09-12T11:10:46;100972.91;;;21.84;43.38
12666;BME280;58531;59.050;17.416;2022-09-12T11:13:27;100971.97;;;21.14;43.65
12666;BME280;58531;59.050;17.416;2022-09-12T11:16:09;100971.75;;;20.62;46.34
12666;BME280;58531;59.050;17.416;2022-09-12T11:18:51;100971.25;;;20.31;42.92
12666;BME280;58531;59.050;17.416;2022-09-12T11:21:39;100971.16;;;19.93;46.93
12666;BME280;58531;59.050;17.416;2022-09-12T11:24:31;100969.13;;;19.66;48.81
12666;BME280;58531;59.050;17.416;2022-09-12T11:27:11;100977.47;;;19.57;49.58
12666;BME280;58531;59.050;17.416;2022-09-12T11:29:49;100978.38;;;19.37;50.95
12666;BME280;58531;59.050;17.416;2022-09-12T11:32:38;100976.31;;;19.16;52.19
12666;BME280;58531;59.050;17.416;2022-09-12T11:35:16;100980.06;;;19.29;53.22
12666;BME280;58531;59.050;17.416;2022-09-12T11:37:56;100974.06;;;19.14;51.93
12666;BME280;58531;59.050;17.416;2022-09-12T11:40:30;100971.56;;;19.53;51.79
12666;BME280;58531;59.050;17.416;2022-09-12T11:43:04;100974.50;;;19.55;50.82
12666;BME280;58531;59.050;17.416;2022-09-12T11:45:36;100971.66;;;19.80;51.50
12666;BME280;58531;59.050;17.416;2022-09-12T11:48:09;100959.09;;;19.83;50.01
12666;BME280;58531;59.050;17.416;2022-09-12T11:50:37;100959.59;;;19.98;49.96
12666;BME280;58531;59.050;17.416;2022-09-12T11:53:10;100968.28;;;20.13;49.77
12666;BME280;58531;59.050;17.416;2022-09-12T11:55:49;100963.88;;;20.37;50.86
12666;BME280;58531;59.050;17.416;2022-09-12T11:58:21;100955.47;;;20.51;47.95
12666;BME280;58531;59.050;17.416;2022-09-12T12:00:53;100957.91;;;20.77;47.76
12666;BME280;58531;59.050;17.416;2022-09-12T12:03:26;100967.28;;;21.09;47.90
12666;BME280;58531;59.050;17.416;2022-09-12T12:06:00;100960.06;;;21.22;45.44
12666;BME280;58531;59.050;17.416;2022-09-12T12:08:30;100958.56;;;21.32;46.63
12666;BME280;58531;59.050;17.416;2022-09-12T12:11:00;100957.34;;;21.17;45.58
12666;BME280;58531;59.050;17.416;2022-09-12T12:13:31;100961.09;;;21.14;45.04
12666;BME280;58531;59.050;17.416;2022-09-12T12:16:02;100949.53;;;20.86;45.52
12666;BME280;58531;59.050;17.416;2022-09-12T12:18:32;100954.22;;;20.80;46.78
12666;BME280;58531;59.050;17.416;2022-09-12T12:21:19;100951.72;;;21.04;46.81
12666;BME280;58531;59.050;17.416;2022-09-12T12:24:02;100945.31;;;21.07;44.79
12666;BME280;58531;59.050;17.416;2022-09-12T12:26:43;100941.19;;;20.40;45.77
12666;BME280;58531;59.050;17.416;2022-09-12T12:29:11;100944.13;;;20.42;47.15
12666;BME280;58531;59.050;17.416;2022-09-12T12:34:39;100936.47;;;20.40;46.62
12666;BME280;58531;59.050;17.416;2022-09-12T12:40:08;100933.03;;;20.45;47.26
12666;BME280;58531;59.050;17.416;2022-09-12T12:43:02;100932.78;;;20.27;47.94
12666;BME280;58531;59.050;17.416;2022-09-12T12:54:31;100917.72;;;19.93;49.02
12666;BME280;58531;59.050;17.416;2022-09-12T12:57:04;100923.84;;;19.88;48.34
12666;BME280;58531;59.050;17.416;2022-09-12T12:59:33;100921.16;;;19.88;48.90
12666;BME280;58531;59.050;17.416;2022-09-12T13:02:00;100922.31;;;19.54;50.23
12666;BME280;58531;59.050;17.416;2022-09-12T13:04:29;100917.97;;;19.20;52.29
12666;BME280;58531;59.050;17.416;2022-09-12T13:07:01;100926.69;;;18.94;54.50
12666;BME280;58531;59.050;17.416;2022-09-12T13:09:31;100922.75;;;18.95;54.95
12666;BME280;58531;59.050;17.416;2022-09-12T13:12:02;100922.63;;;18.73;54.66
12666;BME280;58531;59.050;17.416;2022-09-12T13:14:46;100920.75;;;18.90;54.24
12666;BME280;58531;59.050;17.416;2022-09-12T13:17:24;100924.06;;;19.10;53.95